<?xml version="1.0" encoding="UTF-8" standalone="no" ?>
<gpx xmlns="http://www.topografix.com/GPX/1/1" xmlns:xsi="http://www.w3.org/2001/XMLSchema-instance" xsi:schemaLocation="http://www.topografix.com/GPX/1/1 http://www.topografix.com/GPX/1/1/gpx.xsd" version="1.1" creator="VisuGPX - https://www.visugpx.com">
  <metadata>
    <name>PP Verdon</name>
  </metadata>
  <wpt lat="43.79528" lon="6.43762">
    <ele>642.6</ele>
    <name><![CDATA[Camping]]></name>
  </wpt>
  <trk>
    <name><![CDATA[PP Verdon]]></name>
    <trkseg>
      <trkpt lat="43.79568" lon="6.4364">
        <ele>650.559</ele>
        <time>2016-08-01T06:34:43Z</time>
      </trkpt>
      <trkpt lat="43.79437" lon="6.43503">
        <ele>647.603</ele>
        <time>2016-08-01T06:35:02Z</time>
      </trkpt>
      <trkpt lat="43.79379" lon="6.43367">
        <ele>645.723</ele>
        <time>2016-08-01T06:35:15Z</time>
      </trkpt>
      <trkpt lat="43.79307" lon="6.43361">
        <ele>644.208</ele>
        <time>2016-08-01T06:35:24Z</time>
      </trkpt>
      <trkpt lat="43.79217" lon="6.43246">
        <ele>641.816</ele>
        <time>2016-08-01T06:35:39Z</time>
      </trkpt>
      <trkpt lat="43.7926" lon="6.43107">
        <ele>641.379</ele>
        <time>2016-08-01T06:35:53Z</time>
      </trkpt>
      <trkpt lat="43.79149" lon="6.42856">
        <ele>640.967</ele>
        <time>2016-08-01T06:36:19Z</time>
      </trkpt>
      <trkpt lat="43.79067" lon="6.42344">
        <ele>646.119</ele>
        <time>2016-08-01T06:37:10Z</time>
      </trkpt>
      <trkpt lat="43.79293" lon="6.42127">
        <ele>659.138</ele>
        <time>2016-08-01T06:38:02Z</time>
      </trkpt>
      <trkpt lat="43.79575" lon="6.41621">
        <ele>684.627</ele>
        <time>2016-08-01T06:40:03Z</time>
      </trkpt>
      <trkpt lat="43.79716" lon="6.41255">
        <ele>703.351</ele>
        <time>2016-08-01T06:41:28Z</time>
      </trkpt>
      <trkpt lat="43.79596" lon="6.40942">
        <ele>717.899</ele>
        <time>2016-08-01T06:42:39Z</time>
      </trkpt>
      <trkpt lat="43.79609" lon="6.40804">
        <ele>724.037</ele>
        <time>2016-08-01T06:43:08Z</time>
      </trkpt>
      <trkpt lat="43.7945" lon="6.40743">
        <ele>733.649</ele>
        <time>2016-08-01T06:43:51Z</time>
      </trkpt>
      <trkpt lat="43.79393" lon="6.40786">
        <ele>737.513</ele>
        <time>2016-08-01T06:44:08Z</time>
      </trkpt>
      <trkpt lat="43.79321" lon="6.40708">
        <ele>744.208</ele>
        <time>2016-08-01T06:44:49Z</time>
      </trkpt>
      <trkpt lat="43.79375" lon="6.40596">
        <ele>749.084</ele>
        <time>2016-08-01T06:45:12Z</time>
      </trkpt>
      <trkpt lat="43.79368" lon="6.40358">
        <ele>758.627</ele>
        <time>2016-08-01T06:45:58Z</time>
      </trkpt>
      <trkpt lat="43.79493" lon="6.4005">
        <ele>774.595</ele>
        <time>2016-08-01T06:47:10Z</time>
      </trkpt>
      <trkpt lat="43.79406" lon="6.39891">
        <ele>784.137</ele>
        <time>2016-08-01T06:47:50Z</time>
      </trkpt>
      <trkpt lat="43.79453" lon="6.39713">
        <ele>785.556</ele>
        <time>2016-08-01T06:48:20Z</time>
      </trkpt>
      <trkpt lat="43.7941" lon="6.39647">
        <ele>783.145</ele>
        <time>2016-08-01T06:48:32Z</time>
      </trkpt>
      <trkpt lat="43.79351" lon="6.39242">
        <ele>772.659</ele>
        <time>2016-08-01T06:49:08Z</time>
      </trkpt>
      <trkpt lat="43.79422" lon="6.38956">
        <ele>764.977</ele>
        <time>2016-08-01T06:49:32Z</time>
      </trkpt>
      <trkpt lat="43.79499" lon="6.38872">
        <ele>761.567</ele>
        <time>2016-08-01T06:49:42Z</time>
      </trkpt>
      <trkpt lat="43.79476" lon="6.38723">
        <ele>760.181</ele>
        <time>2016-08-01T06:49:54Z</time>
      </trkpt>
      <trkpt lat="43.79508" lon="6.38645">
        <ele>758.619</ele>
        <time>2016-08-01T06:50:02Z</time>
      </trkpt>
      <trkpt lat="43.7956" lon="6.38686">
        <ele>758.108</ele>
        <time>2016-08-01T06:50:09Z</time>
      </trkpt>
      <trkpt lat="43.79608" lon="6.38655">
        <ele>756.237</ele>
        <time>2016-08-01T06:50:15Z</time>
      </trkpt>
      <trkpt lat="43.79673" lon="6.38445">
        <ele>750.91</ele>
        <time>2016-08-01T06:50:33Z</time>
      </trkpt>
      <trkpt lat="43.79601" lon="6.38371">
        <ele>748.088</ele>
        <time>2016-08-01T06:50:43Z</time>
      </trkpt>
      <trkpt lat="43.79624" lon="6.38283">
        <ele>746.66</ele>
        <time>2016-08-01T06:50:51Z</time>
      </trkpt>
      <trkpt lat="43.79592" lon="6.38246">
        <ele>745.219</ele>
        <time>2016-08-01T06:50:56Z</time>
      </trkpt>
      <trkpt lat="43.79451" lon="6.38384">
        <ele>738.958</ele>
        <time>2016-08-01T06:51:13Z</time>
      </trkpt>
      <trkpt lat="43.79196" lon="6.38387">
        <ele>722.162</ele>
        <time>2016-08-01T06:51:36Z</time>
      </trkpt>
      <trkpt lat="43.7918" lon="6.38272">
        <ele>715.42</ele>
        <time>2016-08-01T06:51:44Z</time>
      </trkpt>
      <trkpt lat="43.79254" lon="6.3812">
        <ele>706.789</ele>
        <time>2016-08-01T06:51:55Z</time>
      </trkpt>
      <trkpt lat="43.7927" lon="6.37987">
        <ele>700.506</ele>
        <time>2016-08-01T06:52:03Z</time>
      </trkpt>
      <trkpt lat="43.79178" lon="6.37754">
        <ele>695.226</ele>
        <time>2016-08-01T06:52:21Z</time>
      </trkpt>
      <trkpt lat="43.79007" lon="6.37905">
        <ele>710.608</ele>
        <time>2016-08-01T06:53:05Z</time>
      </trkpt>
      <trkpt lat="43.78898" lon="6.3809">
        <ele>723.519</ele>
        <time>2016-08-01T06:53:59Z</time>
      </trkpt>
      <trkpt lat="43.78695" lon="6.38092">
        <ele>738.982</ele>
        <time>2016-08-01T06:55:07Z</time>
      </trkpt>
      <trkpt lat="43.78839" lon="6.38043">
        <ele>748.54</ele>
        <time>2016-08-01T06:55:55Z</time>
      </trkpt>
      <trkpt lat="43.78884" lon="6.37875">
        <ele>758.662</ele>
        <time>2016-08-01T06:56:36Z</time>
      </trkpt>
      <trkpt lat="43.78985" lon="6.37736">
        <ele>768.261</ele>
        <time>2016-08-01T06:57:21Z</time>
      </trkpt>
      <trkpt lat="43.78708" lon="6.37458">
        <ele>793.25</ele>
        <time>2016-08-01T06:59:13Z</time>
      </trkpt>
      <trkpt lat="43.78605" lon="6.37168">
        <ele>808.114</ele>
        <time>2016-08-01T07:00:26Z</time>
      </trkpt>
      <trkpt lat="43.78542" lon="6.37157">
        <ele>812.582</ele>
        <time>2016-08-01T07:00:48Z</time>
      </trkpt>
      <trkpt lat="43.78465" lon="6.37056">
        <ele>818.727</ele>
        <time>2016-08-01T07:01:20Z</time>
      </trkpt>
      <trkpt lat="43.78227" lon="6.36439">
        <ele>846.668</ele>
        <time>2016-08-01T07:03:38Z</time>
      </trkpt>
      <trkpt lat="43.782" lon="6.36208">
        <ele>855.714</ele>
        <time>2016-08-01T07:04:24Z</time>
      </trkpt>
      <trkpt lat="43.78015" lon="6.35495">
        <ele>880.708</ele>
        <time>2016-08-01T07:06:46Z</time>
      </trkpt>
      <trkpt lat="43.78042" lon="6.34935">
        <ele>892.773</ele>
        <time>2016-08-01T07:08:12Z</time>
      </trkpt>
      <trkpt lat="43.78191" lon="6.34611">
        <ele>902.876</ele>
        <time>2016-08-01T07:09:14Z</time>
      </trkpt>
      <trkpt lat="43.78195" lon="6.34504">
        <ele>902.874</ele>
        <time>2016-08-01T07:09:28Z</time>
      </trkpt>
      <trkpt lat="43.7804" lon="6.34285">
        <ele>917.256</ele>
        <time>2016-08-01T07:10:21Z</time>
      </trkpt>
      <trkpt lat="43.7796" lon="6.33972">
        <ele>929.395</ele>
        <time>2016-08-01T07:11:26Z</time>
      </trkpt>
      <trkpt lat="43.77624" lon="6.33363">
        <ele>965.824</ele>
        <time>2016-08-01T07:14:21Z</time>
      </trkpt>
      <trkpt lat="43.77348" lon="6.33148">
        <ele>974.978</ele>
        <time>2016-08-01T07:15:23Z</time>
      </trkpt>
      <trkpt lat="43.77293" lon="6.32985">
        <ele>981.226</ele>
        <time>2016-08-01T07:15:53Z</time>
      </trkpt>
      <trkpt lat="43.77275" lon="6.32522">
        <ele>994.613</ele>
        <time>2016-08-01T07:17:17Z</time>
      </trkpt>
      <trkpt lat="43.77042" lon="6.32225">
        <ele>1009.043</ele>
        <time>2016-08-01T07:18:36Z</time>
      </trkpt>
      <trkpt lat="43.76991" lon="6.3192">
        <ele>1017.207</ele>
        <time>2016-08-01T07:19:26Z</time>
      </trkpt>
      <trkpt lat="43.77026" lon="6.31743">
        <ele>1018.708</ele>
        <time>2016-08-01T07:19:51Z</time>
      </trkpt>
      <trkpt lat="43.76863" lon="6.31507">
        <ele>1020.612</ele>
        <time>2016-08-01T07:20:39Z</time>
      </trkpt>
      <trkpt lat="43.76735" lon="6.31117">
        <ele>1005.235</ele>
        <time>2016-08-01T07:21:12Z</time>
      </trkpt>
      <trkpt lat="43.76835" lon="6.30869">
        <ele>997.093</ele>
        <time>2016-08-01T07:21:33Z</time>
      </trkpt>
      <trkpt lat="43.77015" lon="6.30912">
        <ele>995.645</ele>
        <time>2016-08-01T07:21:56Z</time>
      </trkpt>
      <trkpt lat="43.77016" lon="6.30787">
        <ele>988.954</ele>
        <time>2016-08-01T07:22:05Z</time>
      </trkpt>
      <trkpt lat="43.7708" lon="6.30623">
        <ele>980.773</ele>
        <time>2016-08-01T07:22:18Z</time>
      </trkpt>
      <trkpt lat="43.76998" lon="6.30524">
        <ele>974.047</ele>
        <time>2016-08-01T07:22:29Z</time>
      </trkpt>
      <trkpt lat="43.77005" lon="6.30367">
        <ele>969.685</ele>
        <time>2016-08-01T07:22:42Z</time>
      </trkpt>
      <trkpt lat="43.77088" lon="6.30377">
        <ele>967.753</ele>
        <time>2016-08-01T07:22:51Z</time>
      </trkpt>
      <trkpt lat="43.77202" lon="6.30091">
        <ele>953.304</ele>
        <time>2016-08-01T07:23:14Z</time>
      </trkpt>
      <trkpt lat="43.772" lon="6.29903">
        <ele>943.214</ele>
        <time>2016-08-01T07:23:26Z</time>
      </trkpt>
      <trkpt lat="43.77319" lon="6.2977">
        <ele>933.108</ele>
        <time>2016-08-01T07:23:39Z</time>
      </trkpt>
      <trkpt lat="43.77468" lon="6.2942">
        <ele>914.496</ele>
        <time>2016-08-01T07:24:03Z</time>
      </trkpt>
      <trkpt lat="43.77462" lon="6.29302">
        <ele>908.129</ele>
        <time>2016-08-01T07:24:11Z</time>
      </trkpt>
      <trkpt lat="43.77573" lon="6.2914">
        <ele>897.127</ele>
        <time>2016-08-01T07:24:25Z</time>
      </trkpt>
      <trkpt lat="43.77608" lon="6.28703">
        <ele>875.969</ele>
        <time>2016-08-01T07:24:51Z</time>
      </trkpt>
      <trkpt lat="43.77577" lon="6.28584">
        <ele>870.178</ele>
        <time>2016-08-01T07:24:59Z</time>
      </trkpt>
      <trkpt lat="43.77595" lon="6.28478">
        <ele>864.827</ele>
        <time>2016-08-01T07:25:06Z</time>
      </trkpt>
      <trkpt lat="43.77675" lon="6.28365">
        <ele>857.251</ele>
        <time>2016-08-01T07:25:16Z</time>
      </trkpt>
      <trkpt lat="43.78071" lon="6.28249">
        <ele>831.249</ele>
        <time>2016-08-01T07:25:53Z</time>
      </trkpt>
      <trkpt lat="43.77598" lon="6.28228">
        <ele>801.417</ele>
        <time>2016-08-01T07:26:43Z</time>
      </trkpt>
      <trkpt lat="43.77765" lon="6.28203">
        <ele>790.387</ele>
        <time>2016-08-01T07:27:01Z</time>
      </trkpt>
      <trkpt lat="43.78081" lon="6.28009">
        <ele>768.215</ele>
        <time>2016-08-01T07:27:29Z</time>
      </trkpt>
      <trkpt lat="43.78108" lon="6.27891">
        <ele>762.508</ele>
        <time>2016-08-01T07:27:37Z</time>
      </trkpt>
      <trkpt lat="43.78266" lon="6.27677">
        <ele>747.622</ele>
        <time>2016-08-01T07:27:58Z</time>
      </trkpt>
      <trkpt lat="43.78362" lon="6.2737">
        <ele>730.745</ele>
        <time>2016-08-01T07:28:20Z</time>
      </trkpt>
      <trkpt lat="43.78447" lon="6.27244">
        <ele>724.063</ele>
        <time>2016-08-01T07:28:31Z</time>
      </trkpt>
      <trkpt lat="43.78447" lon="6.26752">
        <ele>711.575</ele>
        <time>2016-08-01T07:29:08Z</time>
      </trkpt>
      <trkpt lat="43.78734" lon="6.26575">
        <ele>696.164</ele>
        <time>2016-08-01T07:29:40Z</time>
      </trkpt>
      <trkpt lat="43.78904" lon="6.26649">
        <ele>685.133</ele>
        <time>2016-08-01T07:30:01Z</time>
      </trkpt>
      <trkpt lat="43.78954" lon="6.26532">
        <ele>677.947</ele>
        <time>2016-08-01T07:30:11Z</time>
      </trkpt>
      <trkpt lat="43.79327" lon="6.26503">
        <ele>665.955</ele>
        <time>2016-08-01T07:30:50Z</time>
      </trkpt>
      <trkpt lat="43.79476" lon="6.26247">
        <ele>654.852</ele>
        <time>2016-08-01T07:31:13Z</time>
      </trkpt>
      <trkpt lat="43.79563" lon="6.26324">
        <ele>656.753</ele>
        <time>2016-08-01T07:31:26Z</time>
      </trkpt>
      <trkpt lat="43.79679" lon="6.26289">
        <ele>657.208</ele>
        <time>2016-08-01T07:31:41Z</time>
      </trkpt>
      <trkpt lat="43.79812" lon="6.26168">
        <ele>654.308</ele>
        <time>2016-08-01T07:32:00Z</time>
      </trkpt>
      <trkpt lat="43.79785" lon="6.26072">
        <ele>657.746</ele>
        <time>2016-08-01T07:32:12Z</time>
      </trkpt>
      <trkpt lat="43.7985" lon="6.25966">
        <ele>662.549</ele>
        <time>2016-08-01T07:32:41Z</time>
      </trkpt>
      <trkpt lat="43.80066" lon="6.25961">
        <ele>660.677</ele>
        <time>2016-08-01T07:33:23Z</time>
      </trkpt>
      <trkpt lat="43.80081" lon="6.25845">
        <ele>660.699</ele>
        <time>2016-08-01T07:33:35Z</time>
      </trkpt>
      <trkpt lat="43.80032" lon="6.25732">
        <ele>660.638</ele>
        <time>2016-08-01T07:33:52Z</time>
      </trkpt>
      <trkpt lat="43.80259" lon="6.25436">
        <ele>659.127</ele>
        <time>2016-08-01T07:40:23Z</time>
      </trkpt>
      <trkpt lat="43.80573" lon="6.25406">
        <ele>659.171</ele>
        <time>2016-08-01T07:41:12Z</time>
      </trkpt>
      <trkpt lat="43.80631" lon="6.25458">
        <ele>659.139</ele>
        <time>2016-08-01T07:41:22Z</time>
      </trkpt>
      <trkpt lat="43.8083" lon="6.25486">
        <ele>657.259</ele>
        <time>2016-08-01T07:41:49Z</time>
      </trkpt>
      <trkpt lat="43.80903" lon="6.25445">
        <ele>655.803</ele>
        <time>2016-08-01T07:41:59Z</time>
      </trkpt>
      <trkpt lat="43.81044" lon="6.25562">
        <ele>653.423</ele>
        <time>2016-08-01T07:42:19Z</time>
      </trkpt>
      <trkpt lat="43.81092" lon="6.25514">
        <ele>651.908</ele>
        <time>2016-08-01T07:42:26Z</time>
      </trkpt>
      <trkpt lat="43.81226" lon="6.2551">
        <ele>650.576</ele>
        <time>2016-08-01T07:42:42Z</time>
      </trkpt>
      <trkpt lat="43.81233" lon="6.25409">
        <ele>648.699</ele>
        <time>2016-08-01T07:42:51Z</time>
      </trkpt>
      <trkpt lat="43.81292" lon="6.25319">
        <ele>646.667</ele>
        <time>2016-08-01T07:43:01Z</time>
      </trkpt>
      <trkpt lat="43.81283" lon="6.25044">
        <ele>652.449</ele>
        <time>2016-08-01T07:43:29Z</time>
      </trkpt>
      <trkpt lat="43.81433" lon="6.24985">
        <ele>663.088</ele>
        <time>2016-08-01T07:44:11Z</time>
      </trkpt>
      <trkpt lat="43.81435" lon="6.24881">
        <ele>666.867</ele>
        <time>2016-08-01T07:44:30Z</time>
      </trkpt>
      <trkpt lat="43.81514" lon="6.24794">
        <ele>671.611</ele>
        <time>2016-08-01T07:44:55Z</time>
      </trkpt>
      <trkpt lat="43.81524" lon="6.24651">
        <ele>675.919</ele>
        <time>2016-08-01T07:45:20Z</time>
      </trkpt>
      <trkpt lat="43.81473" lon="6.24477">
        <ele>671.618</ele>
        <time>2016-08-01T07:45:44Z</time>
      </trkpt>
      <trkpt lat="43.81547" lon="6.24284">
        <ele>665.498</ele>
        <time>2016-08-01T07:46:01Z</time>
      </trkpt>
      <trkpt lat="43.81682" lon="6.24263">
        <ele>662.517</ele>
        <time>2016-08-01T07:46:16Z</time>
      </trkpt>
      <trkpt lat="43.81754" lon="6.24356">
        <ele>661.008</ele>
        <time>2016-08-01T07:46:27Z</time>
      </trkpt>
      <trkpt lat="43.81821" lon="6.23967">
        <ele>651.482</ele>
        <time>2016-08-01T07:46:58Z</time>
      </trkpt>
      <trkpt lat="43.81896" lon="6.23764">
        <ele>656.245</ele>
        <time>2016-08-01T07:47:20Z</time>
      </trkpt>
      <trkpt lat="43.8193" lon="6.2347">
        <ele>640.963</ele>
        <time>2016-08-01T07:47:43Z</time>
      </trkpt>
      <trkpt lat="43.82133" lon="6.23267">
        <ele>624.035</ele>
        <time>2016-08-01T07:48:06Z</time>
      </trkpt>
      <trkpt lat="43.82276" lon="6.23208">
        <ele>614.414</ele>
        <time>2016-08-01T07:48:18Z</time>
      </trkpt>
      <trkpt lat="43.82359" lon="6.23253">
        <ele>609.683</ele>
        <time>2016-08-01T07:48:26Z</time>
      </trkpt>
      <trkpt lat="43.8254" lon="6.23078">
        <ele>594.737</ele>
        <time>2016-08-01T07:48:44Z</time>
      </trkpt>
      <trkpt lat="43.82565" lon="6.22941">
        <ele>587.585</ele>
        <time>2016-08-01T07:48:53Z</time>
      </trkpt>
      <trkpt lat="43.82812" lon="6.22791">
        <ele>571.633</ele>
        <time>2016-08-01T07:49:17Z</time>
      </trkpt>
      <trkpt lat="43.82735" lon="6.2274">
        <ele>564.923</ele>
        <time>2016-08-01T07:49:29Z</time>
      </trkpt>
      <trkpt lat="43.8282" lon="6.22657">
        <ele>556.715</ele>
        <time>2016-08-01T07:49:40Z</time>
      </trkpt>
      <trkpt lat="43.8293" lon="6.22793">
        <ele>548.608</ele>
        <time>2016-08-01T07:49:57Z</time>
      </trkpt>
      <trkpt lat="43.82805" lon="6.22459">
        <ele>534.234</ele>
        <time>2016-08-01T07:50:28Z</time>
      </trkpt>
      <trkpt lat="43.82379" lon="6.22436">
        <ele>521.217</ele>
        <time>2016-08-01T07:51:15Z</time>
      </trkpt>
      <trkpt lat="43.81954" lon="6.2266">
        <ele>514.065</ele>
        <time>2016-08-01T07:52:04Z</time>
      </trkpt>
      <trkpt lat="43.81323" lon="6.22639">
        <ele>491.997</ele>
        <time>2016-08-01T07:53:08Z</time>
      </trkpt>
      <trkpt lat="43.80935" lon="6.22838">
        <ele>495.296</ele>
        <time>2016-08-01T07:54:03Z</time>
      </trkpt>
      <trkpt lat="43.80823" lon="6.22986">
        <ele>500.095</ele>
        <time>2016-08-01T07:54:30Z</time>
      </trkpt>
      <trkpt lat="43.8086" lon="6.23331">
        <ele>515.939</ele>
        <time>2016-08-01T07:55:40Z</time>
      </trkpt>
      <trkpt lat="43.80812" lon="6.23449">
        <ele>522.687</ele>
        <time>2016-08-01T07:56:11Z</time>
      </trkpt>
      <trkpt lat="43.80763" lon="6.23475">
        <ele>526.093</ele>
        <time>2016-08-01T07:56:27Z</time>
      </trkpt>
      <trkpt lat="43.80397" lon="6.23365">
        <ele>532.265</ele>
        <time>2016-08-01T07:57:41Z</time>
      </trkpt>
      <trkpt lat="43.8035" lon="6.23389">
        <ele>531.821</ele>
        <time>2016-08-01T07:57:49Z</time>
      </trkpt>
      <trkpt lat="43.80326" lon="6.2351">
        <ele>528.908</ele>
        <time>2016-08-01T07:58:02Z</time>
      </trkpt>
      <trkpt lat="43.80424" lon="6.23751">
        <ele>521.25</ele>
        <time>2016-08-01T07:58:23Z</time>
      </trkpt>
      <trkpt lat="43.80397" lon="6.247">
        <ele>491.933</ele>
        <time>2016-08-01T07:59:22Z</time>
      </trkpt>
      <trkpt lat="43.80264" lon="6.24993">
        <ele>496.291</ele>
        <time>2016-08-01T07:59:55Z</time>
      </trkpt>
      <trkpt lat="43.80111" lon="6.24889">
        <ele>496.253</ele>
        <time>2016-08-01T08:02:05Z</time>
      </trkpt>
      <trkpt lat="43.79985" lon="6.24617">
        <ele>500.522</ele>
        <time>2016-08-01T08:02:44Z</time>
      </trkpt>
      <trkpt lat="43.79693" lon="6.24284">
        <ele>502.491</ele>
        <time>2016-08-01T08:03:45Z</time>
      </trkpt>
      <trkpt lat="43.79718" lon="6.23794">
        <ele>496.215</ele>
        <time>2016-08-01T08:04:29Z</time>
      </trkpt>
      <trkpt lat="43.79577" lon="6.23692">
        <ele>493.343</ele>
        <time>2016-08-01T08:04:48Z</time>
      </trkpt>
      <trkpt lat="43.79543" lon="6.23595">
        <ele>494.735</ele>
        <time>2016-08-01T08:04:58Z</time>
      </trkpt>
      <trkpt lat="43.79591" lon="6.23358">
        <ele>497.686</ele>
        <time>2016-08-01T08:05:23Z</time>
      </trkpt>
      <trkpt lat="43.7952" lon="6.23231">
        <ele>498.614</ele>
        <time>2016-08-01T08:05:40Z</time>
      </trkpt>
      <trkpt lat="43.79334" lon="6.23158">
        <ele>501.008</ele>
        <time>2016-08-01T08:06:14Z</time>
      </trkpt>
      <trkpt lat="43.79229" lon="6.23262">
        <ele>506.344</ele>
        <time>2016-08-01T08:06:43Z</time>
      </trkpt>
      <trkpt lat="43.79463" lon="6.23343">
        <ele>517.827</ele>
        <time>2016-08-01T08:07:42Z</time>
      </trkpt>
      <trkpt lat="43.79464" lon="6.2338">
        <ele>519.755</ele>
        <time>2016-08-01T08:07:51Z</time>
      </trkpt>
      <trkpt lat="43.79204" lon="6.23428">
        <ele>533.247</ele>
        <time>2016-08-01T08:09:04Z</time>
      </trkpt>
      <trkpt lat="43.7916" lon="6.23504">
        <ele>537.516</ele>
        <time>2016-08-01T08:09:25Z</time>
      </trkpt>
      <trkpt lat="43.78894" lon="6.23594">
        <ele>549.555</ele>
        <time>2016-08-01T08:10:38Z</time>
      </trkpt>
      <trkpt lat="43.78813" lon="6.23542">
        <ele>553.979</ele>
        <time>2016-08-01T08:11:03Z</time>
      </trkpt>
      <trkpt lat="43.78706" lon="6.23631">
        <ele>561.137</ele>
        <time>2016-08-01T08:11:38Z</time>
      </trkpt>
      <trkpt lat="43.78597" lon="6.23643">
        <ele>566.859</ele>
        <time>2016-08-01T08:12:07Z</time>
      </trkpt>
      <trkpt lat="43.78511" lon="6.23543">
        <ele>573.103</ele>
        <time>2016-08-01T08:12:38Z</time>
      </trkpt>
      <trkpt lat="43.78465" lon="6.2355">
        <ele>575.523</ele>
        <time>2016-08-01T08:12:51Z</time>
      </trkpt>
      <trkpt lat="43.78411" lon="6.23471">
        <ele>578.408</ele>
        <time>2016-08-01T08:13:12Z</time>
      </trkpt>
      <trkpt lat="43.78586" lon="6.23294">
        <ele>584.696</ele>
        <time>2016-08-01T08:14:00Z</time>
      </trkpt>
      <trkpt lat="43.78601" lon="6.23226">
        <ele>587.589</ele>
        <time>2016-08-01T08:14:15Z</time>
      </trkpt>
      <trkpt lat="43.78515" lon="6.23197">
        <ele>592.347</ele>
        <time>2016-08-01T08:14:39Z</time>
      </trkpt>
      <trkpt lat="43.78309" lon="6.23257">
        <ele>602.479</ele>
        <time>2016-08-01T08:15:36Z</time>
      </trkpt>
      <trkpt lat="43.78271" lon="6.23196">
        <ele>605.838</ele>
        <time>2016-08-01T08:15:51Z</time>
      </trkpt>
      <trkpt lat="43.78211" lon="6.23192">
        <ele>609.127</ele>
        <time>2016-08-01T08:16:08Z</time>
      </trkpt>
      <trkpt lat="43.78108" lon="6.23281">
        <ele>615.441</ele>
        <time>2016-08-01T08:16:44Z</time>
      </trkpt>
      <trkpt lat="43.7806" lon="6.23192">
        <ele>620.799</ele>
        <time>2016-08-01T08:17:07Z</time>
      </trkpt>
      <trkpt lat="43.77892" lon="6.2332">
        <ele>631.271</ele>
        <time>2016-08-01T08:18:04Z</time>
      </trkpt>
      <trkpt lat="43.77883" lon="6.23277">
        <ele>633.741</ele>
        <time>2016-08-01T08:18:13Z</time>
      </trkpt>
      <trkpt lat="43.77786" lon="6.23249">
        <ele>638.915</ele>
        <time>2016-08-01T08:18:40Z</time>
      </trkpt>
      <trkpt lat="43.77729" lon="6.23337">
        <ele>644.208</ele>
        <time>2016-08-01T08:19:07Z</time>
      </trkpt>
      <trkpt lat="43.77667" lon="6.23265">
        <ele>649.558</ele>
        <time>2016-08-01T08:19:28Z</time>
      </trkpt>
      <trkpt lat="43.77455" lon="6.23346">
        <ele>661.031</ele>
        <time>2016-08-01T08:20:28Z</time>
      </trkpt>
      <trkpt lat="43.77294" lon="6.23214">
        <ele>672.159</ele>
        <time>2016-08-01T08:21:21Z</time>
      </trkpt>
      <trkpt lat="43.77309" lon="6.23342">
        <ele>676.981</ele>
        <time>2016-08-01T08:21:46Z</time>
      </trkpt>
      <trkpt lat="43.77468" lon="6.23654">
        <ele>693.32</ele>
        <time>2016-08-01T08:23:01Z</time>
      </trkpt>
      <trkpt lat="43.77537" lon="6.2364">
        <ele>697.189</ele>
        <time>2016-08-01T08:23:22Z</time>
      </trkpt>
      <trkpt lat="43.77455" lon="6.23695">
        <ele>700.963</ele>
        <time>2016-08-01T08:23:48Z</time>
      </trkpt>
      <trkpt lat="43.77328" lon="6.23528">
        <ele>711.541</ele>
        <time>2016-08-01T08:24:36Z</time>
      </trkpt>
      <trkpt lat="43.77139" lon="6.23696">
        <ele>724.551</ele>
        <time>2016-08-01T08:25:36Z</time>
      </trkpt>
      <trkpt lat="43.77157" lon="6.23827">
        <ele>731.201</ele>
        <time>2016-08-01T08:26:03Z</time>
      </trkpt>
      <trkpt lat="43.7734" lon="6.23884">
        <ele>740.411</ele>
        <time>2016-08-01T08:26:54Z</time>
      </trkpt>
      <trkpt lat="43.7737" lon="6.23773">
        <ele>744.208</ele>
        <time>2016-08-01T08:27:19Z</time>
      </trkpt>
      <trkpt lat="43.775" lon="6.24004">
        <ele>761.046</ele>
        <time>2016-08-01T08:28:22Z</time>
      </trkpt>
      <trkpt lat="43.77504" lon="6.24265">
        <ele>772.679</ele>
        <time>2016-08-01T08:29:16Z</time>
      </trkpt>
      <trkpt lat="43.77642" lon="6.24265">
        <ele>780.387</ele>
        <time>2016-08-01T08:29:54Z</time>
      </trkpt>
      <trkpt lat="43.7753" lon="6.24323">
        <ele>784.169</ele>
        <time>2016-08-01T08:30:32Z</time>
      </trkpt>
      <trkpt lat="43.77316" lon="6.24289">
        <ele>791.888</ele>
        <time>2016-08-01T08:49:49Z</time>
      </trkpt>
      <trkpt lat="43.77203" lon="6.24363">
        <ele>798.577</ele>
        <time>2016-08-01T08:50:20Z</time>
      </trkpt>
      <trkpt lat="43.77596" lon="6.24455">
        <ele>833.181</ele>
        <time>2016-08-01T08:53:28Z</time>
      </trkpt>
      <trkpt lat="43.77585" lon="6.2462">
        <ele>842.729</ele>
        <time>2016-08-01T08:54:10Z</time>
      </trkpt>
      <trkpt lat="43.77712" lon="6.24817">
        <ele>858.697</ele>
        <time>2016-08-01T08:55:19Z</time>
      </trkpt>
      <trkpt lat="43.7762" lon="6.25263">
        <ele>887.923</ele>
        <time>2016-08-01T08:57:24Z</time>
      </trkpt>
      <trkpt lat="43.7752" lon="6.25525">
        <ele>907.625</ele>
        <time>2016-08-01T08:58:46Z</time>
      </trkpt>
      <trkpt lat="43.77539" lon="6.25722">
        <ele>920.608</ele>
        <time>2016-08-01T08:59:43Z</time>
      </trkpt>
      <trkpt lat="43.77587" lon="6.25793">
        <ele>925.99</ele>
        <time>2016-08-01T09:00:10Z</time>
      </trkpt>
      <trkpt lat="43.77771" lon="6.25694">
        <ele>940.373</ele>
        <time>2016-08-01T09:02:47Z</time>
      </trkpt>
      <trkpt lat="43.77548" lon="6.25938">
        <ele>962.941</ele>
        <time>2016-08-01T09:04:25Z</time>
      </trkpt>
      <trkpt lat="43.77539" lon="6.26034">
        <ele>967.713</ele>
        <time>2016-08-01T09:04:50Z</time>
      </trkpt>
      <trkpt lat="43.77402" lon="6.25621">
        <ele>997.522</ele>
        <time>2016-08-01T09:06:53Z</time>
      </trkpt>
      <trkpt lat="43.77256" lon="6.25678">
        <ele>1010.081</ele>
        <time>2016-08-01T09:07:52Z</time>
      </trkpt>
      <trkpt lat="43.77383" lon="6.25735">
        <ele>1019.155</ele>
        <time>2016-08-01T09:08:41Z</time>
      </trkpt>
      <trkpt lat="43.77268" lon="6.25756">
        <ele>1029.733</ele>
        <time>2016-08-01T09:09:22Z</time>
      </trkpt>
      <trkpt lat="43.77125" lon="6.25708">
        <ele>1042.739</ele>
        <time>2016-08-01T09:10:18Z</time>
      </trkpt>
      <trkpt lat="43.77094" lon="6.25592">
        <ele>1051.301</ele>
        <time>2016-08-01T09:10:55Z</time>
      </trkpt>
      <trkpt lat="43.77084" lon="6.25723">
        <ele>1059.521</ele>
        <time>2016-08-01T09:11:31Z</time>
      </trkpt>
      <trkpt lat="43.7717" lon="6.25925">
        <ele>1074.408</ele>
        <time>2016-08-01T09:12:37Z</time>
      </trkpt>
      <trkpt lat="43.77037" lon="6.26082">
        <ele>1090.314</ele>
        <time>2016-08-01T09:13:42Z</time>
      </trkpt>
      <trkpt lat="43.76751" lon="6.26182">
        <ele>1117.287</ele>
        <time>2016-08-01T09:15:35Z</time>
      </trkpt>
      <trkpt lat="43.76702" lon="6.26325">
        <ele>1126.885</ele>
        <time>2016-08-01T09:16:17Z</time>
      </trkpt>
      <trkpt lat="43.76722" lon="6.26405">
        <ele>1131.127</ele>
        <time>2016-08-01T09:17:23Z</time>
      </trkpt>
      <trkpt lat="43.76526" lon="6.26549">
        <ele>1147.036</ele>
        <time>2016-08-01T09:18:58Z</time>
      </trkpt>
      <trkpt lat="43.76381" lon="6.26838">
        <ele>1170.585</ele>
        <time>2016-08-01T09:20:47Z</time>
      </trkpt>
      <trkpt lat="43.76427" lon="6.27055">
        <ele>1185.419</ele>
        <time>2016-08-01T09:21:57Z</time>
      </trkpt>
      <trkpt lat="43.76525" lon="6.27119">
        <ele>1195.127</ele>
        <time>2016-08-01T09:22:41Z</time>
      </trkpt>
      <trkpt lat="43.76569" lon="6.27327">
        <ele>1190.351</ele>
        <time>2016-08-01T09:23:15Z</time>
      </trkpt>
      <trkpt lat="43.76631" lon="6.274">
        <ele>1184.501</ele>
        <time>2016-08-01T09:23:23Z</time>
      </trkpt>
      <trkpt lat="43.7676" lon="6.27426">
        <ele>1173.911</ele>
        <time>2016-08-01T09:24:08Z</time>
      </trkpt>
      <trkpt lat="43.76677" lon="6.27679">
        <ele>1157.608</ele>
        <time>2016-08-01T09:26:04Z</time>
      </trkpt>
      <trkpt lat="43.76557" lon="6.27791">
        <ele>1144.636</ele>
        <time>2016-08-01T09:26:18Z</time>
      </trkpt>
      <trkpt lat="43.76529" lon="6.27913">
        <ele>1137.499</ele>
        <time>2016-08-01T09:26:27Z</time>
      </trkpt>
      <trkpt lat="43.76358" lon="6.2817">
        <ele>1114.317</ele>
        <time>2016-08-01T09:26:46Z</time>
      </trkpt>
      <trkpt lat="43.7613" lon="6.28319">
        <ele>1094.159</ele>
        <time>2016-08-01T09:27:12Z</time>
      </trkpt>
      <trkpt lat="43.76115" lon="6.28465">
        <ele>1087.958</ele>
        <time>2016-08-01T09:27:24Z</time>
      </trkpt>
      <trkpt lat="43.75927" lon="6.28693">
        <ele>1069.677</ele>
        <time>2016-08-01T09:27:50Z</time>
      </trkpt>
      <trkpt lat="43.75941" lon="6.28847">
        <ele>1061.911</ele>
        <time>2016-08-01T09:28:02Z</time>
      </trkpt>
      <trkpt lat="43.75892" lon="6.28914">
        <ele>1057.699</ele>
        <time>2016-08-01T09:28:09Z</time>
      </trkpt>
      <trkpt lat="43.75883" lon="6.29019">
        <ele>1053.758</ele>
        <time>2016-08-01T09:28:17Z</time>
      </trkpt>
      <trkpt lat="43.75781" lon="6.29152">
        <ele>1048.552</ele>
        <time>2016-08-01T09:28:34Z</time>
      </trkpt>
      <trkpt lat="43.75887" lon="6.29297">
        <ele>1037.917</ele>
        <time>2016-08-01T09:28:53Z</time>
      </trkpt>
      <trkpt lat="43.75889" lon="6.29356">
        <ele>1033.608</ele>
        <time>2016-08-01T09:28:58Z</time>
      </trkpt>
      <trkpt lat="43.75772" lon="6.29502">
        <ele>1023.076</ele>
        <time>2016-08-01T09:29:15Z</time>
      </trkpt>
      <trkpt lat="43.75705" lon="6.29513">
        <ele>1018.259</ele>
        <time>2016-08-01T09:29:23Z</time>
      </trkpt>
      <trkpt lat="43.75577" lon="6.29712">
        <ele>1004.777</ele>
        <time>2016-08-01T09:29:42Z</time>
      </trkpt>
      <trkpt lat="43.75603" lon="6.29903">
        <ele>993.739</ele>
        <time>2016-08-01T09:29:58Z</time>
      </trkpt>
      <trkpt lat="43.75397" lon="6.30301">
        <ele>965.328</ele>
        <time>2016-08-01T09:30:36Z</time>
      </trkpt>
      <trkpt lat="43.75597" lon="6.30101">
        <ele>954.787</ele>
        <time>2016-08-01T09:31:12Z</time>
      </trkpt>
      <trkpt lat="43.75489" lon="6.30342">
        <ele>942.241</ele>
        <time>2016-08-01T09:31:38Z</time>
      </trkpt>
      <trkpt lat="43.75377" lon="6.30875">
        <ele>914.839</ele>
        <time>2016-08-01T09:32:17Z</time>
      </trkpt>
      <trkpt lat="43.75403" lon="6.31084">
        <ele>904.359</ele>
        <time>2016-08-01T09:32:31Z</time>
      </trkpt>
      <trkpt lat="43.75376" lon="6.31246">
        <ele>896.603</ele>
        <time>2016-08-01T09:32:42Z</time>
      </trkpt>
      <trkpt lat="43.75243" lon="6.31317">
        <ele>888.423</ele>
        <time>2016-08-01T09:32:59Z</time>
      </trkpt>
      <trkpt lat="43.75262" lon="6.31398">
        <ele>883.608</ele>
        <time>2016-08-01T09:33:09Z</time>
      </trkpt>
      <trkpt lat="43.7513" lon="6.31637">
        <ele>865.816</ele>
        <time>2016-08-01T09:33:31Z</time>
      </trkpt>
      <trkpt lat="43.75114" lon="6.32115">
        <ele>841.819</ele>
        <time>2016-08-01T09:33:59Z</time>
      </trkpt>
      <trkpt lat="43.74978" lon="6.3209">
        <ele>841.897</ele>
        <time>2016-08-01T09:34:22Z</time>
      </trkpt>
      <trkpt lat="43.74956" lon="6.32155">
        <ele>841.369</ele>
        <time>2016-08-01T09:34:33Z</time>
      </trkpt>
      <trkpt lat="43.7476" lon="6.32283">
        <ele>852.868</ele>
        <time>2016-08-01T09:35:20Z</time>
      </trkpt>
      <trkpt lat="43.74681" lon="6.32271">
        <ele>858.167</ele>
        <time>2016-08-01T09:35:43Z</time>
      </trkpt>
      <trkpt lat="43.74663" lon="6.32337">
        <ele>856.731</ele>
        <time>2016-08-01T09:35:53Z</time>
      </trkpt>
      <trkpt lat="43.74471" lon="6.32364">
        <ele>856.769</ele>
        <time>2016-08-01T09:36:21Z</time>
      </trkpt>
      <trkpt lat="43.74472" lon="6.32535">
        <ele>856.213</ele>
        <time>2016-08-01T09:36:40Z</time>
      </trkpt>
      <trkpt lat="43.7441" lon="6.32674">
        <ele>855.243</ele>
        <time>2016-08-01T09:36:56Z</time>
      </trkpt>
      <trkpt lat="43.74413" lon="6.3297">
        <ele>849.507</ele>
        <time>2016-08-01T09:37:22Z</time>
      </trkpt>
      <trkpt lat="43.7413" lon="6.33854">
        <ele>817.308</ele>
        <time>2016-08-01T09:38:29Z</time>
      </trkpt>
      <trkpt lat="43.74176" lon="6.34051">
        <ele>811.512</ele>
        <time>2016-08-01T09:38:42Z</time>
      </trkpt>
      <trkpt lat="43.73925" lon="6.34102">
        <ele>814.925</ele>
        <time>2016-08-01T09:39:13Z</time>
      </trkpt>
      <trkpt lat="43.73715" lon="6.34529">
        <ele>808.673</ele>
        <time>2016-08-01T09:39:50Z</time>
      </trkpt>
      <trkpt lat="43.73546" lon="6.35046">
        <ele>835.525</ele>
        <time>2016-08-01T09:41:52Z</time>
      </trkpt>
      <trkpt lat="43.73207" lon="6.35303">
        <ele>848.054</ele>
        <time>2016-08-01T09:43:54Z</time>
      </trkpt>
      <trkpt lat="43.73024" lon="6.35664">
        <ele>863.923</ele>
        <time>2016-08-01T09:45:10Z</time>
      </trkpt>
      <trkpt lat="43.73004" lon="6.36065">
        <ele>877.837</ele>
        <time>2016-08-01T09:46:23Z</time>
      </trkpt>
      <trkpt lat="43.72751" lon="6.36455">
        <ele>898.015</ele>
        <time>2016-08-01T09:48:03Z</time>
      </trkpt>
      <trkpt lat="43.72763" lon="6.365">
        <ele>900.467</ele>
        <time>2016-08-01T09:48:13Z</time>
      </trkpt>
      <trkpt lat="43.73259" lon="6.36371">
        <ele>927.381</ele>
        <time>2016-08-01T09:50:26Z</time>
      </trkpt>
      <trkpt lat="43.73483" lon="6.36364">
        <ele>939.419</ele>
        <time>2016-08-01T09:51:23Z</time>
      </trkpt>
      <trkpt lat="43.73549" lon="6.36531">
        <ele>929.708</ele>
        <time>2016-08-01T09:51:44Z</time>
      </trkpt>
      <trkpt lat="43.73552" lon="6.36736">
        <ele>920.627</ele>
        <time>2016-08-01T09:52:23Z</time>
      </trkpt>
      <trkpt lat="43.73228" lon="6.37317">
        <ele>888.48</ele>
        <time>2016-08-01T09:53:16Z</time>
      </trkpt>
      <trkpt lat="43.73436" lon="6.37146">
        <ele>871.628</ele>
        <time>2016-08-01T09:54:22Z</time>
      </trkpt>
      <trkpt lat="43.73721" lon="6.37048">
        <ele>872.17</ele>
        <time>2016-08-01T09:54:53Z</time>
      </trkpt>
      <trkpt lat="43.73912" lon="6.37128">
        <ele>879.369</ele>
        <time>2016-08-01T09:55:28Z</time>
      </trkpt>
      <trkpt lat="43.73902" lon="6.37277">
        <ele>881.758</ele>
        <time>2016-08-01T09:55:50Z</time>
      </trkpt>
      <trkpt lat="43.74023" lon="6.37335">
        <ele>880.222</ele>
        <time>2016-08-01T09:56:11Z</time>
      </trkpt>
      <trkpt lat="43.73702" lon="6.37682">
        <ele>840.32</ele>
        <time>2016-08-01T09:56:47Z</time>
      </trkpt>
      <trkpt lat="43.73389" lon="6.37667">
        <ele>813.499</ele>
        <time>2016-08-01T09:57:12Z</time>
      </trkpt>
      <trkpt lat="43.73336" lon="6.37611">
        <ele>808.607</ele>
        <time>2016-08-01T09:57:18Z</time>
      </trkpt>
      <trkpt lat="43.73266" lon="6.3772">
        <ele>801.927</ele>
        <time>2016-08-01T09:57:29Z</time>
      </trkpt>
      <trkpt lat="43.73317" lon="6.37941">
        <ele>792.708</ele>
        <time>2016-08-01T09:57:44Z</time>
      </trkpt>
      <trkpt lat="43.73299" lon="6.38709">
        <ele>761.05</ele>
        <time>2016-08-01T09:58:31Z</time>
      </trkpt>
      <trkpt lat="43.7316" lon="6.38737">
        <ele>750.053</ele>
        <time>2016-08-01T09:58:48Z</time>
      </trkpt>
      <trkpt lat="43.73061" lon="6.38655">
        <ele>747.671</ele>
        <time>2016-08-01T09:59:02Z</time>
      </trkpt>
      <trkpt lat="43.72971" lon="6.38799">
        <ele>749.543</ele>
        <time>2016-08-01T10:00:23Z</time>
      </trkpt>
      <trkpt lat="43.73004" lon="6.38903">
        <ele>755.332</ele>
        <time>2016-08-01T10:00:42Z</time>
      </trkpt>
      <trkpt lat="43.73202" lon="6.39005">
        <ele>771.611</ele>
        <time>2016-08-01T10:01:48Z</time>
      </trkpt>
      <trkpt lat="43.73467" lon="6.39374">
        <ele>797.685</ele>
        <time>2016-08-01T10:03:46Z</time>
      </trkpt>
      <trkpt lat="43.73781" lon="6.38839">
        <ele>806.793</ele>
        <time>2016-08-01T10:05:30Z</time>
      </trkpt>
      <trkpt lat="43.73882" lon="6.3876">
        <ele>806.754</ele>
        <time>2016-08-01T10:05:45Z</time>
      </trkpt>
      <trkpt lat="43.73877" lon="6.3863">
        <ele>807.656</ele>
        <time>2016-08-01T10:05:58Z</time>
      </trkpt>
      <trkpt lat="43.73747" lon="6.38377">
        <ele>794.211</ele>
        <time>2016-08-01T10:06:20Z</time>
      </trkpt>
      <trkpt lat="43.73759" lon="6.38299">
        <ele>792.708</ele>
        <time>2016-08-01T10:06:26Z</time>
      </trkpt>
      <trkpt lat="43.73913" lon="6.38135">
        <ele>788.456</ele>
        <time>2016-08-01T10:06:45Z</time>
      </trkpt>
      <trkpt lat="43.74114" lon="6.3822">
        <ele>805.759</ele>
        <time>2016-08-01T10:07:40Z</time>
      </trkpt>
      <trkpt lat="43.74231" lon="6.38216">
        <ele>814.997</ele>
        <time>2016-08-01T10:08:21Z</time>
      </trkpt>
      <trkpt lat="43.74185" lon="6.3853">
        <ele>830.249</ele>
        <time>2016-08-01T10:09:38Z</time>
      </trkpt>
      <trkpt lat="43.74218" lon="6.38673">
        <ele>837.018</ele>
        <time>2016-08-01T10:10:09Z</time>
      </trkpt>
      <trkpt lat="43.74201" lon="6.38922">
        <ele>849.937</ele>
        <time>2016-08-01T10:11:04Z</time>
      </trkpt>
      <trkpt lat="43.7426" lon="6.39091">
        <ele>859.671</ele>
        <time>2016-08-01T10:11:45Z</time>
      </trkpt>
      <trkpt lat="43.74364" lon="6.39184">
        <ele>869.269</ele>
        <time>2016-08-01T10:12:25Z</time>
      </trkpt>
      <trkpt lat="43.74537" lon="6.39088">
        <ele>883.649</ele>
        <time>2016-08-01T10:13:33Z</time>
      </trkpt>
      <trkpt lat="43.74905" lon="6.3974">
        <ele>931.202</ele>
        <time>2016-08-01T10:17:07Z</time>
      </trkpt>
      <trkpt lat="43.75222" lon="6.4011">
        <ele>963.422</ele>
        <time>2016-08-01T10:19:29Z</time>
      </trkpt>
      <trkpt lat="43.75304" lon="6.40266">
        <ele>973.008</ele>
        <time>2016-08-01T10:20:14Z</time>
      </trkpt>
      <trkpt lat="43.75255" lon="6.40566">
        <ele>977.845</ele>
        <time>2016-08-01T10:21:04Z</time>
      </trkpt>
      <trkpt lat="43.75265" lon="6.40807">
        <ele>979.718</ele>
        <time>2016-08-01T10:21:33Z</time>
      </trkpt>
      <trkpt lat="43.75207" lon="6.41365">
        <ele>999.946</ele>
        <time>2016-08-01T10:23:22Z</time>
      </trkpt>
      <trkpt lat="43.75123" lon="6.41495">
        <ele>1005.288</ele>
        <time>2016-08-01T10:23:47Z</time>
      </trkpt>
      <trkpt lat="43.75185" lon="6.41679">
        <ele>1004.277</ele>
        <time>2016-08-01T10:24:09Z</time>
      </trkpt>
      <trkpt lat="43.75155" lon="6.4184">
        <ele>1003.346</ele>
        <time>2016-08-01T10:24:25Z</time>
      </trkpt>
      <trkpt lat="43.75074" lon="6.41919">
        <ele>1001.89</ele>
        <time>2016-08-01T10:24:37Z</time>
      </trkpt>
      <trkpt lat="43.74749" lon="6.41906">
        <ele>998.558</ele>
        <time>2016-08-01T10:25:17Z</time>
      </trkpt>
      <trkpt lat="43.74438" lon="6.42241">
        <ele>992.212</ele>
        <time>2016-08-01T10:26:01Z</time>
      </trkpt>
      <trkpt lat="43.74272" lon="6.42297">
        <ele>989.332</ele>
        <time>2016-08-01T10:26:20Z</time>
      </trkpt>
      <trkpt lat="43.73917" lon="6.42866">
        <ele>980.705</ele>
        <time>2016-08-01T10:27:16Z</time>
      </trkpt>
      <trkpt lat="43.7387" lon="6.43046">
        <ele>979.208</ele>
        <time>2016-08-01T10:27:30Z</time>
      </trkpt>
      <trkpt lat="43.73671" lon="6.43237">
        <ele>975.482</ele>
        <time>2016-08-01T10:27:55Z</time>
      </trkpt>
      <trkpt lat="43.73646" lon="6.4332">
        <ele>977.375</ele>
        <time>2016-08-01T10:28:04Z</time>
      </trkpt>
      <trkpt lat="43.73906" lon="6.43594">
        <ele>950.463</ele>
        <time>2016-08-01T10:28:34Z</time>
      </trkpt>
      <trkpt lat="43.74144" lon="6.43682">
        <ele>926.425</ele>
        <time>2016-08-01T10:28:52Z</time>
      </trkpt>
      <trkpt lat="43.74466" lon="6.43655">
        <ele>897.134</ele>
        <time>2016-08-01T10:29:18Z</time>
      </trkpt>
      <trkpt lat="43.74559" lon="6.43586">
        <ele>889.473</ele>
        <time>2016-08-01T10:29:28Z</time>
      </trkpt>
      <trkpt lat="43.74612" lon="6.43461">
        <ele>880.277</ele>
        <time>2016-08-01T10:29:39Z</time>
      </trkpt>
      <trkpt lat="43.74666" lon="6.43477">
        <ele>876.985</ele>
        <time>2016-08-01T10:29:46Z</time>
      </trkpt>
      <trkpt lat="43.7468" lon="6.43592">
        <ele>867.738</ele>
        <time>2016-08-01T10:29:58Z</time>
      </trkpt>
      <trkpt lat="43.74855" lon="6.43407">
        <ele>853.37</ele>
        <time>2016-08-01T10:30:22Z</time>
      </trkpt>
      <trkpt lat="43.74864" lon="6.43744">
        <ele>832.217</ele>
        <time>2016-08-01T10:30:49Z</time>
      </trkpt>
      <trkpt lat="43.75073" lon="6.43547">
        <ele>815.308</ele>
        <time>2016-08-01T10:31:18Z</time>
      </trkpt>
      <trkpt lat="43.75077" lon="6.43665">
        <ele>805.284</ele>
        <time>2016-08-01T10:31:29Z</time>
      </trkpt>
      <trkpt lat="43.7532" lon="6.43891">
        <ele>779.827</ele>
        <time>2016-08-01T10:31:54Z</time>
      </trkpt>
      <trkpt lat="43.75344" lon="6.43993">
        <ele>776.445</ele>
        <time>2016-08-01T10:32:02Z</time>
      </trkpt>
      <trkpt lat="43.75442" lon="6.44013">
        <ele>781.757</ele>
        <time>2016-08-01T10:32:16Z</time>
      </trkpt>
      <trkpt lat="43.75566" lon="6.43865">
        <ele>789.476</ele>
        <time>2016-08-01T10:32:52Z</time>
      </trkpt>
      <trkpt lat="43.75609" lon="6.43716">
        <ele>798.055</ele>
        <time>2016-08-01T10:33:27Z</time>
      </trkpt>
      <trkpt lat="43.75746" lon="6.44114">
        <ele>813.969</ele>
        <time>2016-08-01T10:37:18Z</time>
      </trkpt>
      <trkpt lat="43.75947" lon="6.44069">
        <ele>792.787</ele>
        <time>2016-08-01T10:37:40Z</time>
      </trkpt>
      <trkpt lat="43.76021" lon="6.44106">
        <ele>789.418</ele>
        <time>2016-08-01T10:37:51Z</time>
      </trkpt>
      <trkpt lat="43.76062" lon="6.4423">
        <ele>787.098</ele>
        <time>2016-08-01T10:39:22Z</time>
      </trkpt>
      <trkpt lat="43.76043" lon="6.44167">
        <ele>785.517</ele>
        <time>2016-08-01T10:39:59Z</time>
      </trkpt>
      <trkpt lat="43.7592" lon="6.44219">
        <ele>775.408</ele>
        <time>2016-08-01T10:40:19Z</time>
      </trkpt>
      <trkpt lat="43.75844" lon="6.44506">
        <ele>761.072</ele>
        <time>2016-08-01T10:40:42Z</time>
      </trkpt>
      <trkpt lat="43.75943" lon="6.44453">
        <ele>756.785</ele>
        <time>2016-08-01T10:40:57Z</time>
      </trkpt>
      <trkpt lat="43.75966" lon="6.44393">
        <ele>754.813</ele>
        <time>2016-08-01T10:41:05Z</time>
      </trkpt>
      <trkpt lat="43.75955" lon="6.4464">
        <ele>739.945</ele>
        <time>2016-08-01T10:41:26Z</time>
      </trkpt>
      <trkpt lat="43.76074" lon="6.44808">
        <ele>732.234</ele>
        <time>2016-08-01T10:41:44Z</time>
      </trkpt>
      <trkpt lat="43.76313" lon="6.44852">
        <ele>723.583</ele>
        <time>2016-08-01T10:42:10Z</time>
      </trkpt>
      <trkpt lat="43.76337" lon="6.4499">
        <ele>722.677</ele>
        <time>2016-08-01T10:42:23Z</time>
      </trkpt>
      <trkpt lat="43.76288" lon="6.45125">
        <ele>729.865</ele>
        <time>2016-08-01T10:42:46Z</time>
      </trkpt>
      <trkpt lat="43.7677" lon="6.44785">
        <ele>726.461</ele>
        <time>2016-08-01T10:43:59Z</time>
      </trkpt>
      <trkpt lat="43.76872" lon="6.44785">
        <ele>722.621</ele>
        <time>2016-08-01T10:44:10Z</time>
      </trkpt>
      <trkpt lat="43.77058" lon="6.44889">
        <ele>716.313</ele>
        <time>2016-08-01T10:44:30Z</time>
      </trkpt>
      <trkpt lat="43.77217" lon="6.44911">
        <ele>711.508</ele>
        <time>2016-08-01T10:44:46Z</time>
      </trkpt>
      <trkpt lat="43.77233" lon="6.44956">
        <ele>710.117</ele>
        <time>2016-08-01T10:44:51Z</time>
      </trkpt>
      <trkpt lat="43.77379" lon="6.44738">
        <ele>701.96</ele>
        <time>2016-08-01T10:45:15Z</time>
      </trkpt>
      <trkpt lat="43.77645" lon="6.44866">
        <ele>705.888</ele>
        <time>2016-08-01T10:45:51Z</time>
      </trkpt>
      <trkpt lat="43.77627" lon="6.44664">
        <ele>712.07</ele>
        <time>2016-08-01T10:46:16Z</time>
      </trkpt>
      <trkpt lat="43.77754" lon="6.44514">
        <ele>719.749</ele>
        <time>2016-08-01T10:46:48Z</time>
      </trkpt>
      <trkpt lat="43.77906" lon="6.4445">
        <ele>725.018</ele>
        <time>2016-08-01T10:47:20Z</time>
      </trkpt>
      <trkpt lat="43.7795" lon="6.4453">
        <ele>729.322</ele>
        <time>2016-08-01T10:47:37Z</time>
      </trkpt>
      <trkpt lat="43.78064" lon="6.44445">
        <ele>735.65</ele>
        <time>2016-08-01T10:48:07Z</time>
      </trkpt>
      <trkpt lat="43.78204" lon="6.44534">
        <ele>739.924</ele>
        <time>2016-08-01T10:48:37Z</time>
      </trkpt>
      <trkpt lat="43.78499" lon="6.44587">
        <ele>734.604</ele>
        <time>2016-08-01T10:49:15Z</time>
      </trkpt>
      <trkpt lat="43.78547" lon="6.44549">
        <ele>734.614</ele>
        <time>2016-08-01T10:49:22Z</time>
      </trkpt>
      <trkpt lat="43.78601" lon="6.44358">
        <ele>735.108</ele>
        <time>2016-08-01T10:49:41Z</time>
      </trkpt>
      <trkpt lat="43.7883" lon="6.44334">
        <ele>725.543</ele>
        <time>2016-08-01T10:50:03Z</time>
      </trkpt>
      <trkpt lat="43.78988" lon="6.44412">
        <ele>718.266</ele>
        <time>2016-08-01T10:50:19Z</time>
      </trkpt>
      <trkpt lat="43.79119" lon="6.44275">
        <ele>710.654</ele>
        <time>2016-08-01T10:50:34Z</time>
      </trkpt>
      <trkpt lat="43.7936" lon="6.44247">
        <ele>700.016</ele>
        <time>2016-08-01T10:50:56Z</time>
      </trkpt>
      <trkpt lat="43.7957" lon="6.44327">
        <ele>692.855</ele>
        <time>2016-08-01T10:51:16Z</time>
      </trkpt>
      <trkpt lat="43.79629" lon="6.44474">
        <ele>688.994</ele>
        <time>2016-08-01T10:51:31Z</time>
      </trkpt>
      <trkpt lat="43.79795" lon="6.44307">
        <ele>682.228</ele>
        <time>2016-08-01T10:51:51Z</time>
      </trkpt>
      <trkpt lat="43.79807" lon="6.44167">
        <ele>679.396</ele>
        <time>2016-08-01T10:52:02Z</time>
      </trkpt>
      <trkpt lat="43.80003" lon="6.44107">
        <ele>675.585</ele>
        <time>2016-08-01T10:52:22Z</time>
      </trkpt>
      <trkpt lat="43.80065" lon="6.43986">
        <ele>671.689</ele>
        <time>2016-08-01T10:52:33Z</time>
      </trkpt>
      <trkpt lat="43.80302" lon="6.43915">
        <ele>670.217</ele>
        <time>2016-08-01T10:52:58Z</time>
      </trkpt>
      <trkpt lat="43.80364" lon="6.43988">
        <ele>666.808</ele>
        <time>2016-08-01T10:53:06Z</time>
      </trkpt>
      <trkpt lat="43.80393" lon="6.44212">
        <ele>665.419</ele>
        <time>2016-08-01T10:53:24Z</time>
      </trkpt>
      <trkpt lat="43.80475" lon="6.44215">
        <ele>666.812</ele>
        <time>2016-08-01T10:53:34Z</time>
      </trkpt>
      <trkpt lat="43.80553" lon="6.44153">
        <ele>668.39</ele>
        <time>2016-08-01T10:53:45Z</time>
      </trkpt>
      <trkpt lat="43.80582" lon="6.4399">
        <ele>646.9</ele>
      </trkpt>
      <trkpt lat="43.80579" lon="6.43993">
        <ele>655.808</ele>
        <time>2016-08-01T06:31:58Z</time>
      </trkpt>
      <trkpt lat="43.80466" lon="6.44108">
        <ele>653.44</ele>
        <time>2016-08-01T06:32:16Z</time>
      </trkpt>
      <trkpt lat="43.80435" lon="6.44077">
        <ele>652.973</ele>
        <time>2016-08-01T06:32:21Z</time>
      </trkpt>
      <trkpt lat="43.80427" lon="6.43866">
        <ele>653.841</ele>
        <time>2016-08-01T06:32:41Z</time>
      </trkpt>
      <trkpt lat="43.8033" lon="6.43793">
        <ele>654.313</ele>
        <time>2016-08-01T06:32:55Z</time>
      </trkpt>
      <trkpt lat="43.80135" lon="6.43792">
        <ele>654.332</ele>
        <time>2016-08-01T06:33:20Z</time>
      </trkpt>
      <trkpt lat="43.80023" lon="6.43845">
        <ele>653.491</ele>
        <time>2016-08-01T06:33:35Z</time>
      </trkpt>
      <trkpt lat="43.7993" lon="6.43788">
        <ele>653.455</ele>
        <time>2016-08-01T06:33:48Z</time>
      </trkpt>
      <trkpt lat="43.79676" lon="6.43841">
        <ele>652.473</ele>
        <time>2016-08-01T06:34:21Z</time>
      </trkpt>
      <trkpt lat="43.79568" lon="6.4364">
        <ele>650.559</ele>
        <time>2016-08-01T06:34:43Z</time>
      </trkpt>
    </trkseg>
  </trk>
</gpx>